createdAt,value
2018-09-04T00:00:34.852Z,99.99
2018-09-04T00:01:34.848Z,99.99
2018-09-04T00:02:34.848Z,99.99
2018-09-04T00:03:34.847Z,99.99
2018-09-04T00:04:34.848Z,99.99
2018-09-04T00:05:34.846Z,99.99
2018-09-04T00:06:34.850Z,99.99
2018-09-04T00:07:34.850Z,99.99
2018-09-04T00:08:34.853Z,99.99
2018-09-04T00:09:34.858Z,99.99
2018-09-04T00:10:34.850Z,99.99
2018-09-04T00:11:34.853Z,99.99
2018-09-04T00:12:34.851Z,99.99
2018-09-04T00:13:34.853Z,99.99
2018-09-04T00:14:34.853Z,99.99
2018-09-04T00:15:34.855Z,99.99
2018-09-04T00:16:34.853Z,99.99
2018-09-04T00:17:34.859Z,99.99
2018-09-04T00:18:34.851Z,99.99
2018-09-04T00:19:34.851Z,99.99
2018-09-04T00:20:34.853Z,99.99
2018-09-04T00:21:34.853Z,99.99
2018-09-04T00:22:34.852Z,99.99
2018-09-04T00:23:34.858Z,99.99
2018-09-04T00:24:34.857Z,99.99
2018-09-04T00:25:34.856Z,99.99
2018-09-04T00:26:34.852Z,99.99
2018-09-04T00:27:34.855Z,99.99
2018-09-04T00:28:34.859Z,99.99
2018-09-04T00:29:34.857Z,99.99
2018-09-04T00:30:34.859Z,99.99
2018-09-04T00:31:34.855Z,99.99
2018-09-04T00:32:34.859Z,99.99
2018-09-04T00:33:34.862Z,99.99
2018-09-04T00:34:34.926Z,99.99
2018-09-04T00:35:34.858Z,99.99
2018-09-04T00:36:34.860Z,99.99
2018-09-04T00:37:34.859Z,99.99
2018-09-04T00:38:34.859Z,99.99
2018-09-04T00:39:34.856Z,99.99
2018-09-04T00:40:34.859Z,99.99
2018-09-04T00:41:34.858Z,99.99
2018-09-04T00:42:34.862Z,99.99
2018-09-04T00:43:34.859Z,99.99
2018-09-04T00:44:34.859Z,99.99
2018-09-04T00:45:34.858Z,99.99
2018-09-04T00:46:34.857Z,99.99
2018-09-04T00:47:34.859Z,99.99
2018-09-04T00:48:34.858Z,99.99
2018-09-04T00:49:34.865Z,99.99
2018-09-04T00:50:34.860Z,99.99
2018-09-04T00:51:34.855Z,99.99
2018-09-04T00:52:34.859Z,99.99
2018-09-04T00:53:34.860Z,99.99
2018-09-04T00:54:34.855Z,99.99
2018-09-04T00:55:34.863Z,99.99
2018-09-04T00:56:34.860Z,99.99
2018-09-04T00:57:34.864Z,99.99
2018-09-04T00:58:34.860Z,99.99
2018-09-04T00:59:34.862Z,99.99
2018-09-04T01:00:34.864Z,99.99
2018-09-04T01:01:34.864Z,99.99
2018-09-04T01:02:34.860Z,99.99
2018-09-04T01:03:34.862Z,99.99
2018-09-04T01:04:34.865Z,99.99
2018-09-04T01:05:34.864Z,99.99
2018-09-04T01:06:34.867Z,99.99
2018-09-04T01:07:34.866Z,99.99
2018-09-04T01:08:34.861Z,99.99
2018-09-04T01:09:34.861Z,99.99
2018-09-04T01:10:34.863Z,99.99
2018-09-04T01:11:34.860Z,99.99
2018-09-04T01:12:34.857Z,99.99
2018-09-04T01:13:34.860Z,99.99
2018-09-04T01:14:34.863Z,99.99
2018-09-04T01:15:34.866Z,99.99
2018-09-04T01:16:34.863Z,99.99
2018-09-04T01:17:34.866Z,99.99
2018-09-04T01:18:34.867Z,99.99
2018-09-04T01:19:34.864Z,99.99
2018-09-04T01:20:34.861Z,99.99
2018-09-04T01:21:34.859Z,99.99
2018-09-04T01:22:34.858Z,99.99
2018-09-04T01:23:34.860Z,99.99
2018-09-04T01:24:34.862Z,99.99
2018-09-04T01:25:34.907Z,99.99
2018-09-04T01:26:34.866Z,99.99
2018-09-04T01:27:34.860Z,99.99
2018-09-04T01:28:34.860Z,99.99
2018-09-04T01:29:34.859Z,99.99
2018-09-04T01:30:34.861Z,99.99
2018-09-04T01:31:34.858Z,99.99
2018-09-04T01:32:34.856Z,99.99
2018-09-04T01:33:34.855Z,99.99
2018-09-04T01:34:34.859Z,99.99
2018-09-04T01:35:34.853Z,99.99
2018-09-04T01:36:34.854Z,99.99
2018-09-04T01:37:34.859Z,99.99
2018-09-04T01:38:34.860Z,99.99
2018-09-04T01:39:34.860Z,99.99
2018-09-04T01:40:34.858Z,99.99
2018-09-04T01:41:34.860Z,99.99
2018-09-04T01:42:34.855Z,99.99
2018-09-04T01:43:34.855Z,99.99
2018-09-04T01:44:34.856Z,99.99
2018-09-04T01:45:34.853Z,99.99
2018-09-04T01:46:34.854Z,99.99
2018-09-04T01:47:34.855Z,99.99
2018-09-04T01:48:34.859Z,99.99
2018-09-04T01:49:34.858Z,99.99
2018-09-04T01:50:34.853Z,99.99
2018-09-04T01:51:34.851Z,99.99
2018-09-04T01:52:34.859Z,99.99
2018-09-04T01:53:34.849Z,99.99
2018-09-04T01:54:34.849Z,99.99
2018-09-04T01:55:34.852Z,99.99
2018-09-04T01:56:34.849Z,99.99
2018-09-04T01:57:34.850Z,99.99
2018-09-04T01:58:34.849Z,99.99
2018-09-04T01:59:34.853Z,99.99
2018-09-04T02:00:34.847Z,99.99
2018-09-04T02:01:34.844Z,99.99
2018-09-04T02:02:34.854Z,99.99
2018-09-04T02:03:34.851Z,99.99
2018-09-04T02:04:34.844Z,99.99
2018-09-04T02:05:34.850Z,99.99
2018-09-04T02:06:34.844Z,99.99
2018-09-04T02:07:34.843Z,99.99
2018-09-04T02:08:34.844Z,99.99
2018-09-04T02:09:34.857Z,99.99
2018-09-04T02:10:34.846Z,99.99
2018-09-04T02:11:34.844Z,99.99
2018-09-04T02:12:34.844Z,99.99
2018-09-04T02:13:34.847Z,99.99
2018-09-04T02:14:34.850Z,99.99
2018-09-04T02:15:34.840Z,99.99
2018-09-04T02:16:34.844Z,99.99
2018-09-04T02:17:34.840Z,99.99
2018-09-04T02:18:34.847Z,99.99
2018-09-04T02:19:34.837Z,99.99
2018-09-04T02:20:34.838Z,99.99
2018-09-04T02:21:34.839Z,99.99
2018-09-04T02:22:34.838Z,99.99
2018-09-04T02:23:34.834Z,99.99
2018-09-04T02:24:34.842Z,99.99
2018-09-04T02:25:34.832Z,99.99
2018-09-04T02:26:34.837Z,99.99
2018-09-04T02:27:34.830Z,99.99
2018-09-04T02:28:34.840Z,99.99
2018-09-04T02:29:34.840Z,99.99
2018-09-04T02:30:34.837Z,99.99
2018-09-04T02:31:34.833Z,99.99
2018-09-04T02:32:34.841Z,99.99
2018-09-04T02:33:34.864Z,99.99
2018-09-04T02:34:34.829Z,99.99
2018-09-04T02:35:34.833Z,99.99
2018-09-04T02:36:34.831Z,99.99
2018-09-04T02:37:34.830Z,99.99
2018-09-04T02:38:34.841Z,99.99
2018-09-04T02:39:34.829Z,99.99
2018-09-04T02:40:34.827Z,99.99
2018-09-04T02:41:34.826Z,99.99
2018-09-04T02:42:34.823Z,99.99
2018-09-04T02:43:34.826Z,99.99
2018-09-04T02:44:34.826Z,99.99
2018-09-04T02:45:34.821Z,99.99
2018-09-04T02:46:34.829Z,99.99
2018-09-04T02:47:34.820Z,99.99
2018-09-04T02:48:34.820Z,99.99
2018-09-04T02:49:34.824Z,99.99
2018-09-04T02:50:34.822Z,99.99
2018-09-04T02:51:34.821Z,99.99
2018-09-04T02:52:34.821Z,99.99
2018-09-04T02:53:34.814Z,99.99
2018-09-04T02:54:34.820Z,99.99
2018-09-04T02:55:34.874Z,99.99
2018-09-04T02:56:34.818Z,99.99
2018-09-04T02:57:34.821Z,99.99
2018-09-04T02:58:34.821Z,99.99
2018-09-04T02:59:34.811Z,99.99
2018-09-04T03:00:34.819Z,99.99
2018-09-04T03:01:34.814Z,99.99
2018-09-04T03:02:34.811Z,99.99
2018-09-04T03:03:34.811Z,99.99
2018-09-04T03:04:34.811Z,99.99
2018-09-04T03:05:34.811Z,99.99
2018-09-04T03:06:34.812Z,99.99
2018-09-04T03:07:34.806Z,99.99
2018-09-04T03:08:34.817Z,99.99
2018-09-04T03:09:34.806Z,99.99
2018-09-04T03:10:34.809Z,99.99
2018-09-04T03:11:34.803Z,99.99
2018-09-04T03:12:34.804Z,99.99
2018-09-04T03:13:34.885Z,99.99
2018-09-04T03:14:34.800Z,99.99
2018-09-04T03:15:34.800Z,99.99
2018-09-04T03:16:34.802Z,99.99
2018-09-04T03:17:34.799Z,99.99
2018-09-04T03:18:34.798Z,99.99
2018-09-04T03:19:34.808Z,99.99
2018-09-04T03:20:34.807Z,99.99
2018-09-04T03:21:34.795Z,99.99
2018-09-04T03:22:34.795Z,99.99
2018-09-04T03:23:34.817Z,99.99
2018-09-04T03:24:34.794Z,99.99
2018-09-04T03:25:34.796Z,99.99
2018-09-04T03:26:34.792Z,99.99
2018-09-04T03:27:34.796Z,99.99
2018-09-04T03:28:34.792Z,99.99
2018-09-04T03:29:34.787Z,99.99
2018-09-04T03:30:34.788Z,99.99
2018-09-04T03:31:34.786Z,99.99
2018-09-04T03:32:34.786Z,99.99
2018-09-04T03:33:34.784Z,99.99
2018-09-04T03:34:34.787Z,99.99
2018-09-04T03:35:34.791Z,99.99
2018-09-04T03:36:34.783Z,99.99
2018-09-04T03:37:34.780Z,99.99
2018-09-04T03:38:34.780Z,99.99
2018-09-04T03:39:34.787Z,99.99
2018-09-04T03:40:34.781Z,99.99
2018-09-04T03:41:34.778Z,99.99
2018-09-04T03:42:34.780Z,99.99
2018-09-04T03:43:34.775Z,99.99
2018-09-04T03:44:34.783Z,99.99
2018-09-04T03:45:34.778Z,99.99
2018-09-04T03:46:34.772Z,99.99
2018-09-04T03:47:34.771Z,99.99
2018-09-04T03:48:34.771Z,99.99
2018-09-04T03:49:34.774Z,99.99
2018-09-04T03:50:34.773Z,99.99
2018-09-04T03:51:34.779Z,99.99
2018-09-04T03:52:34.770Z,99.99
2018-09-04T03:53:34.768Z,99.99
2018-09-04T03:54:34.772Z,99.99
2018-09-04T03:55:34.765Z,99.99
2018-09-04T03:56:34.763Z,99.99
2018-09-04T03:57:34.764Z,99.99
2018-09-04T03:58:34.764Z,99.99
2018-09-04T03:59:34.763Z,99.99
2018-09-04T04:00:34.763Z,99.99
2018-09-04T04:01:34.875Z,99.99
2018-09-04T04:02:34.760Z,99.99
2018-09-04T04:03:34.766Z,99.99
2018-09-04T04:04:34.768Z,99.99
2018-09-04T04:05:34.755Z,99.99
2018-09-04T04:06:34.756Z,99.99
2018-09-04T04:07:34.760Z,99.99
2018-09-04T04:08:34.767Z,99.99
2018-09-04T04:09:34.756Z,99.99
2018-09-04T04:10:34.752Z,99.99
2018-09-04T04:11:34.753Z,99.99
2018-09-04T04:12:34.753Z,99.99
2018-09-04T04:13:34.750Z,99.99
2018-09-04T04:14:34.750Z,99.99
2018-09-04T04:15:34.746Z,99.99
2018-09-04T04:16:34.748Z,99.99
2018-09-04T04:17:34.748Z,99.99
2018-09-04T04:18:34.749Z,99.99
2018-09-04T04:19:34.748Z,99.99
2018-09-04T04:20:34.748Z,99.99
2018-09-04T04:21:34.745Z,99.99
2018-09-04T04:22:34.744Z,99.99
2018-09-04T04:23:34.740Z,99.99
2018-09-04T04:24:34.740Z,99.99
2018-09-04T04:25:34.742Z,99.99
2018-09-04T04:26:34.740Z,99.99
2018-09-04T04:27:34.747Z,99.99
2018-09-04T04:28:34.743Z,99.99
2018-09-04T04:29:34.751Z,99.99
2018-09-04T04:30:34.740Z,99.99
2018-09-04T04:31:34.737Z,99.99
2018-09-04T04:32:34.735Z,99.99
2018-09-04T04:33:34.736Z,99.99
2018-09-04T04:34:34.738Z,99.99
2018-09-04T04:35:34.738Z,99.99
2018-09-04T04:36:34.735Z,99.99
2018-09-04T04:37:34.728Z,99.99
2018-09-04T04:38:34.730Z,99.99
2018-09-04T04:39:34.735Z,99.99
2018-09-04T04:40:34.729Z,99.99
2018-09-04T04:41:34.730Z,99.99
2018-09-04T04:42:34.724Z,99.99
2018-09-04T04:43:34.724Z,99.99
2018-09-04T04:44:34.725Z,99.99
2018-09-04T04:45:34.722Z,99.99
2018-09-04T04:46:34.723Z,99.99
2018-09-04T04:47:34.721Z,99.99
2018-09-04T04:48:34.721Z,99.99
2018-09-04T04:49:34.717Z,99.99
2018-09-04T04:50:34.716Z,99.99
2018-09-04T04:51:34.716Z,99.99
2018-09-04T04:52:34.717Z,99.99
2018-09-04T04:53:34.722Z,99.99
2018-09-04T04:54:34.714Z,99.99
2018-09-04T04:55:34.714Z,99.99
2018-09-04T04:56:34.717Z,99.99
2018-09-04T04:57:34.712Z,99.99
2018-09-04T04:58:34.723Z,99.99
2018-09-04T04:59:34.711Z,99.99
2018-09-04T05:00:34.709Z,99.99
2018-09-04T05:01:34.708Z,99.99
2018-09-04T05:02:34.713Z,99.99
2018-09-04T05:03:34.701Z,99.99
2018-09-04T05:04:34.708Z,99.99
2018-09-04T05:05:34.704Z,99.99
2018-09-04T05:06:34.708Z,99.99
2018-09-04T05:07:34.702Z,99.99
2018-09-04T05:08:34.702Z,99.99
2018-09-04T05:09:34.702Z,99.99
2018-09-04T05:10:34.700Z,99.99
2018-09-04T05:11:34.780Z,99.99
2018-09-04T05:12:34.694Z,99.99
2018-09-04T05:13:34.697Z,99.99
2018-09-04T05:14:34.690Z,99.99
2018-09-04T05:15:34.698Z,99.99
2018-09-04T05:16:34.696Z,99.99
2018-09-04T05:17:34.692Z,99.99
2018-09-04T05:18:34.689Z,99.99
2018-09-04T05:19:34.689Z,99.99
2018-09-04T05:20:34.692Z,99.99
2018-09-04T05:21:34.685Z,99.99
2018-09-04T05:22:34.743Z,99.99
2018-09-04T05:23:34.688Z,99.99
2018-09-04T05:24:34.687Z,99.99
2018-09-04T05:25:34.685Z,99.68
2018-09-04T05:26:34.684Z,99.25
2018-09-04T05:27:34.684Z,97.19
2018-09-04T05:28:34.682Z,96.18
2018-09-04T05:29:34.680Z,95.55
2018-09-04T05:30:34.685Z,96.13
2018-09-04T05:31:34.680Z,94.40
2018-09-04T05:32:34.680Z,93.39
2018-09-04T05:33:34.676Z,91.71
2018-09-04T05:34:34.679Z,90.75
2018-09-04T05:35:34.678Z,90.55
2018-09-04T05:36:34.702Z,90.99
2018-09-04T05:37:34.677Z,91.71
2018-09-04T05:38:34.676Z,90.65
2018-09-04T05:39:34.678Z,89.50
2018-09-04T05:40:34.676Z,89.69
2018-09-04T05:41:34.680Z,89.78
2018-09-04T05:42:34.680Z,90.89
2018-09-04T05:43:34.676Z,93.44
2018-09-04T05:44:34.678Z,94.45
2018-09-04T05:45:34.678Z,96.13
2018-09-04T05:46:34.687Z,97.76
2018-09-04T05:47:34.680Z,98.43
2018-09-04T05:48:34.680Z,98.72
2018-09-04T05:49:34.676Z,98.14
2018-09-04T05:50:34.676Z,97.71
2018-09-04T05:51:34.680Z,96.18
2018-09-04T05:52:34.677Z,97.19
2018-09-04T05:53:34.674Z,98.62
2018-09-04T05:54:34.680Z,99.53
2018-09-04T05:55:34.681Z,99.01
2018-09-04T05:56:34.676Z,98.72
2018-09-04T05:57:34.677Z,97.95
2018-09-04T05:58:34.678Z,97.19
2018-09-04T05:59:34.679Z,97.56
2018-09-04T06:00:34.681Z,95.65
2018-09-04T06:01:34.674Z,92.72
2018-09-04T06:02:34.677Z,91.66
2018-09-04T06:03:34.675Z,90.07
2018-09-04T06:04:34.676Z,89.98
2018-09-04T06:05:34.677Z,89.50
2018-09-04T06:06:34.689Z,88.77
2018-09-04T06:07:34.676Z,87.08
2018-09-04T06:08:34.676Z,85.93
2018-09-04T06:09:34.675Z,85.54
2018-09-04T06:10:34.681Z,85.30
2018-09-04T06:11:34.677Z,82.64
2018-09-04T06:12:34.677Z,80.41
2018-09-04T06:13:34.701Z,79.98
2018-09-04T06:14:34.682Z,81.52
2018-09-04T06:15:34.679Z,80.02
2018-09-04T06:16:34.680Z,80.46
2018-09-04T06:17:34.677Z,80.46
2018-09-04T06:18:34.684Z,80.51
2018-09-04T06:19:34.684Z,78.67
2018-09-04T06:20:34.685Z,79.93
2018-09-04T06:21:34.682Z,77.65
2018-09-04T06:22:34.682Z,76.76
2018-09-04T06:23:34.691Z,74.23
2018-09-04T06:24:34.690Z,72.72
2018-09-04T06:25:34.695Z,73.63
2018-09-04T06:26:34.694Z,76.36
2018-09-04T06:27:34.696Z,79.41
2018-09-04T06:28:34.699Z,79.56
2018-09-04T06:29:34.755Z,81.35
2018-09-04T06:30:34.701Z,82.83
2018-09-04T06:31:34.705Z,80.66
2018-09-04T06:32:34.703Z,78.77
2018-09-04T06:33:34.785Z,77.21
2018-09-04T06:34:34.720Z,76.20
2018-09-04T06:35:34.727Z,76.82
2018-09-04T06:36:34.780Z,75.47
2018-09-04T06:37:34.714Z,74.76
2018-09-04T06:38:34.714Z,78.09
2018-09-04T06:39:34.720Z,78.63
2018-09-04T06:40:34.721Z,79.11
2018-09-04T06:41:34.721Z,77.26
2018-09-04T06:42:34.728Z,75.95
2018-09-04T06:43:34.753Z,76.15
2018-09-04T06:44:34.732Z,77.86
2018-09-04T06:45:34.741Z,77.81
2018-09-04T06:46:34.862Z,77.01
2018-09-04T06:47:34.738Z,74.52
2018-09-04T06:48:34.742Z,72.33
2018-09-04T06:49:34.747Z,73.03
2018-09-04T06:50:34.749Z,75.59
2018-09-04T06:51:34.750Z,77.96
2018-09-04T06:52:34.752Z,79.25
2018-09-04T06:53:34.759Z,77.05
2018-09-04T06:54:34.822Z,73.65
2018-09-04T06:55:34.762Z,71.01
2018-09-04T06:56:34.762Z,68.49
2018-09-04T06:57:34.774Z,70.04
2018-09-04T06:58:34.776Z,68.46
2018-09-04T06:59:34.772Z,70.56
2018-09-04T07:00:34.776Z,72.16
2018-09-04T07:01:34.778Z,71.39
2018-09-04T07:02:34.780Z,72.94
2018-09-04T07:03:34.784Z,70.72
2018-09-04T07:04:34.793Z,68.91
2018-09-04T07:05:34.790Z,67.30
2018-09-04T07:06:34.797Z,65.53
2018-09-04T07:07:34.798Z,65.47
2018-09-04T07:08:34.802Z,65.40
2018-09-04T07:09:34.807Z,63.98
2018-09-04T07:10:34.804Z,63.82
2018-09-04T07:11:34.812Z,65.37
2018-09-04T07:12:34.816Z,68.11
2018-09-04T07:13:34.820Z,67.72
2018-09-04T07:14:34.824Z,67.08
2018-09-04T07:15:34.826Z,70.62
2018-09-04T07:16:34.831Z,73.44
2018-09-04T07:17:34.835Z,73.54
2018-09-04T07:18:34.839Z,74.79
2018-09-04T07:19:34.843Z,73.03
2018-09-04T07:20:34.848Z,70.78
2018-09-04T07:21:34.851Z,68.56
2018-09-04T07:22:34.857Z,66.72
2018-09-04T07:23:34.861Z,65.30
2018-09-04T07:24:34.866Z,63.43
2018-09-04T07:25:34.865Z,61.39
2018-09-04T07:26:34.871Z,63.01
2018-09-04T07:27:34.876Z,63.46
2018-09-04T07:28:34.884Z,63.23
2018-09-04T07:29:34.887Z,62.16
2018-09-04T07:30:34.897Z,62.59
2018-09-04T07:31:34.911Z,61.98
2018-09-04T07:32:34.899Z,62.65
2018-09-04T07:33:34.906Z,62.30
2018-09-04T07:34:34.911Z,65.01
2018-09-04T07:35:34.914Z,70.58
2018-09-04T07:36:35.082Z,73.38
2018-09-04T07:37:34.927Z,74.02
2018-09-04T07:38:34.918Z,76.32
2018-09-04T07:39:34.927Z,78.88
2018-09-04T07:40:34.935Z,79.75
2018-09-04T07:41:34.952Z,80.71
2018-09-04T07:42:34.934Z,81.39
2018-09-04T07:43:34.935Z,80.33
2018-09-04T07:44:34.943Z,80.91
2018-09-04T07:45:34.947Z,81.39
2018-09-04T07:46:34.946Z,81.54
2018-09-04T07:47:34.951Z,81.93
2018-09-04T07:48:34.956Z,82.02
2018-09-04T07:49:34.962Z,82.70
2018-09-04T07:50:34.963Z,82.98
2018-09-04T07:51:34.962Z,82.31
2018-09-04T07:52:34.964Z,82.79
2018-09-04T07:53:34.973Z,82.54
2018-09-04T07:54:34.969Z,81.48
2018-09-04T07:55:34.973Z,80.91
2018-09-04T07:56:34.979Z,80.66
2018-09-04T07:57:34.979Z,80.85
2018-09-04T07:58:34.984Z,80.43
2018-09-04T07:59:34.983Z,81.48
2018-09-04T08:00:34.984Z,83.18
2018-09-04T08:01:34.986Z,83.75
2018-09-04T08:02:34.992Z,83.18
2018-09-04T08:03:35.003Z,83.56
2018-09-04T08:04:34.992Z,82.89
2018-09-04T08:05:34.992Z,83.41
2018-09-04T08:06:34.997Z,82.89
2018-09-04T08:07:35.003Z,83.08
2018-09-04T08:08:35.004Z,82.98
2018-09-04T08:09:35.006Z,83.37
2018-09-04T08:10:35.008Z,83.37
2018-09-04T08:11:35.006Z,83.75
2018-09-04T08:12:35.007Z,83.41
2018-09-04T08:13:35.008Z,82.35
2018-09-04T08:14:35.013Z,81.87
2018-09-04T08:15:35.013Z,82.26
2018-09-04T08:16:35.016Z,82.10
2018-09-04T08:17:35.017Z,81.81
2018-09-04T08:18:35.018Z,81.43
2018-09-04T08:19:35.023Z,81.20
2018-09-04T08:20:35.113Z,81.43
2018-09-04T08:21:35.032Z,80.56
2018-09-04T08:22:35.028Z,80.37
2018-09-04T08:23:35.031Z,80.08
2018-09-04T08:24:35.027Z,79.41
2018-09-04T08:25:35.024Z,79.35
2018-09-04T08:26:35.028Z,78.86
2018-09-04T08:27:35.033Z,79.50
2018-09-04T08:28:35.036Z,79.06
2018-09-04T08:29:35.036Z,79.06
2018-09-04T08:30:35.040Z,78.38
2018-09-04T08:31:35.042Z,77.33
2018-09-04T08:32:35.043Z,77.13
2018-09-04T08:33:35.046Z,77.13
2018-09-04T08:34:35.045Z,77.26
2018-09-04T08:35:35.049Z,76.20
2018-09-04T08:36:35.050Z,76.30
2018-09-04T08:37:35.049Z,76.98
2018-09-04T08:38:35.056Z,76.68
2018-09-04T08:39:35.053Z,76.50
2018-09-04T08:40:35.057Z,75.78
2018-09-04T08:41:35.056Z,76.45
2018-09-04T08:42:35.061Z,75.97
2018-09-04T08:43:35.064Z,76.20
2018-09-04T08:44:35.065Z,76.30
2018-09-04T08:45:35.066Z,76.50
2018-09-04T08:46:35.066Z,76.30
2018-09-04T08:47:35.068Z,76.01
2018-09-04T08:48:35.071Z,75.97
2018-09-04T08:49:35.072Z,76.30
2018-09-04T08:50:35.096Z,76.68
2018-09-04T08:51:35.072Z,76.78
2018-09-04T08:52:35.079Z,76.24
2018-09-04T08:53:35.155Z,75.95
2018-09-04T08:54:35.084Z,75.47
2018-09-04T08:55:35.082Z,76.82
2018-09-04T08:56:35.086Z,76.34
2018-09-04T08:57:35.088Z,75.18
2018-09-04T08:58:35.150Z,75.67
2018-09-04T08:59:35.090Z,73.25
2018-09-04T09:00:35.094Z,73.63
2018-09-04T09:01:35.098Z,73.73
2018-09-04T09:02:35.097Z,73.25
2018-09-04T09:03:35.105Z,73.15
2018-09-04T09:04:35.102Z,72.77
2018-09-04T09:05:35.189Z,72.86
2018-09-04T09:06:35.111Z,73.44
2018-09-04T09:07:35.108Z,73.25
2018-09-04T09:08:35.110Z,72.67
2018-09-04T09:09:35.111Z,73.25
2018-09-04T09:10:35.113Z,73.19
2018-09-04T09:11:35.119Z,73.19
2018-09-04T09:12:35.118Z,73.48
2018-09-04T09:13:35.120Z,73.48
2018-09-04T09:14:35.119Z,73.77
2018-09-04T09:15:35.121Z,73.32
2018-09-04T09:16:35.127Z,73.32
2018-09-04T09:17:35.128Z,73.13
2018-09-04T09:18:35.133Z,72.36
2018-09-04T09:19:35.133Z,71.81
2018-09-04T09:20:35.135Z,70.65
2018-09-04T09:21:35.139Z,70.07
2018-09-04T09:22:35.139Z,70.36
2018-09-04T09:23:35.145Z,69.74
2018-09-04T09:24:35.145Z,70.29
2018-09-04T09:25:35.148Z,71.00
2018-09-04T09:26:35.149Z,70.81
2018-09-04T09:27:35.156Z,71.00
2018-09-04T09:28:35.166Z,71.78
2018-09-04T09:29:35.417Z,71.68
2018-09-04T09:30:35.156Z,71.58
2018-09-04T09:31:35.158Z,71.97
2018-09-04T09:32:35.163Z,70.32
2018-09-04T09:33:35.164Z,70.52
2018-09-04T09:34:35.167Z,70.75
2018-09-04T09:35:35.172Z,70.04
2018-09-04T09:36:35.241Z,70.62
2018-09-04T09:37:35.173Z,70.17
2018-09-04T09:38:35.173Z,69.88
2018-09-04T09:39:35.187Z,69.74
2018-09-04T09:40:35.183Z,69.56
2018-09-04T09:41:35.186Z,70.46
2018-09-04T09:42:35.188Z,69.20
2018-09-04T09:43:35.190Z,68.43
2018-09-04T09:44:35.196Z,67.94
2018-09-04T09:45:35.197Z,68.52
2018-09-04T09:46:35.198Z,68.43
2018-09-04T09:47:35.201Z,68.88
2018-09-04T09:48:35.206Z,69.59
2018-09-04T09:49:35.208Z,68.82
2018-09-04T09:50:35.239Z,68.20
2018-09-04T09:51:35.211Z,68.14
2018-09-04T09:52:35.397Z,67.46
2018-09-04T09:53:35.436Z,67.85
2018-09-04T09:54:35.217Z,68.37
2018-09-04T09:55:35.220Z,66.14
2018-09-04T09:56:35.228Z,66.63
2018-09-04T09:57:35.249Z,66.63
2018-09-04T09:58:35.230Z,67.21
2018-09-04T09:59:35.255Z,67.36
2018-09-04T10:00:35.234Z,67.30
2018-09-04T10:01:35.247Z,67.79
2018-09-04T10:02:35.239Z,68.75
2018-09-04T10:03:35.240Z,67.98
2018-09-04T10:04:35.243Z,67.24
2018-09-04T10:05:35.245Z,67.98
2018-09-04T10:06:35.250Z,68.59
2018-09-04T10:07:35.332Z,68.30
2018-09-04T10:08:35.257Z,66.85
2018-09-04T10:09:35.259Z,67.24
2018-09-04T10:10:35.303Z,67.14
2018-09-04T10:11:35.266Z,67.14
2018-09-04T10:12:35.270Z,66.75
2018-09-04T10:13:35.269Z,66.47
2018-09-04T10:14:35.273Z,66.82
2018-09-04T10:15:35.276Z,66.95
2018-09-04T10:16:35.278Z,67.33
2018-09-04T10:17:35.281Z,67.53
2018-09-04T10:18:35.288Z,67.53
2018-09-04T10:19:35.289Z,66.85
2018-09-04T10:20:35.290Z,67.14
2018-09-04T10:21:35.291Z,67.24
2018-09-04T10:22:35.296Z,65.79
2018-09-04T10:23:35.299Z,65.53
2018-09-04T10:24:35.301Z,64.82
2018-09-04T10:25:35.304Z,65.01
2018-09-04T10:26:35.345Z,63.85
2018-09-04T10:27:35.311Z,65.11
2018-09-04T10:28:35.311Z,63.76
2018-09-04T10:29:35.321Z,64.04
2018-09-04T10:30:35.317Z,64.56
2018-09-04T10:31:35.322Z,63.76
2018-09-04T10:32:35.325Z,63.98
2018-09-04T10:33:35.326Z,63.49
2018-09-04T10:34:35.331Z,63.98
2018-09-04T10:35:35.352Z,64.72
2018-09-04T10:36:35.337Z,64.85
2018-09-04T10:37:35.340Z,65.20
2018-09-04T10:38:35.342Z,65.72
2018-09-04T10:39:35.346Z,64.47
2018-09-04T10:40:35.430Z,64.95
2018-09-04T10:41:35.352Z,64.95
2018-09-04T10:42:35.357Z,63.01
2018-09-04T10:43:35.361Z,62.14
2018-09-04T10:44:35.365Z,62.40
2018-09-04T10:45:35.364Z,63.98
2018-09-04T10:46:35.371Z,64.37
2018-09-04T10:47:35.377Z,64.66
2018-09-04T10:48:35.373Z,64.66
2018-09-04T10:49:35.378Z,63.31
2018-09-04T10:50:35.784Z,63.49
2018-09-04T10:51:35.388Z,63.69
2018-09-04T10:52:35.388Z,63.98
2018-09-04T10:53:35.388Z,63.92
2018-09-04T10:54:35.393Z,62.37
2018-09-04T10:55:35.414Z,61.98
2018-09-04T10:56:35.400Z,62.59
2018-09-04T10:57:35.479Z,61.72
2018-09-04T10:58:35.407Z,60.75
2018-09-04T10:59:35.407Z,60.46
2018-09-04T11:00:35.413Z,60.58
2018-09-04T11:01:35.418Z,60.00
2018-09-04T11:02:35.418Z,58.16
2018-09-04T11:03:35.424Z,58.74
2018-09-04T11:04:35.500Z,58.94
2018-09-04T11:05:35.430Z,58.16
2018-09-04T11:06:35.433Z,58.74
2018-09-04T11:07:35.439Z,59.42
2018-09-04T11:08:35.442Z,59.61
2018-09-04T11:09:35.515Z,58.74
2018-09-04T11:10:35.448Z,59.23
2018-09-04T11:11:35.452Z,58.55
2018-09-04T11:12:35.455Z,58.55
2018-09-04T11:13:35.459Z,58.26
2018-09-04T11:14:35.465Z,57.87
2018-09-04T11:15:35.471Z,58.16
2018-09-04T11:16:35.471Z,58.36
2018-09-04T11:17:35.478Z,58.55
2018-09-04T11:18:35.484Z,57.87
2018-09-04T11:19:35.476Z,56.90
2018-09-04T11:20:35.487Z,57.19
2018-09-04T11:21:35.483Z,56.13
2018-09-04T11:22:35.489Z,56.32
2018-09-04T11:23:35.509Z,56.68
2018-09-04T11:24:35.500Z,57.36
2018-09-04T11:25:35.507Z,58.81
2018-09-04T11:26:35.509Z,58.72
2018-09-04T11:27:35.515Z,59.10
2018-09-04T11:28:35.519Z,58.33
2018-09-04T11:29:35.522Z,59.20
2018-09-04T11:30:35.584Z,58.62
2018-09-04T11:31:35.524Z,58.84
2018-09-04T11:32:35.534Z,58.94
2018-09-04T11:33:35.534Z,58.16
2018-09-04T11:34:35.541Z,58.74
2018-09-04T11:35:35.545Z,58.72
2018-09-04T11:36:35.571Z,58.69
2018-09-04T11:37:35.559Z,59.10
2018-09-04T11:38:35.560Z,58.72
2018-09-04T11:39:35.709Z,59.20
2018-09-04T11:40:35.652Z,59.84
2018-09-04T11:41:35.569Z,60.04
2018-09-04T11:42:35.575Z,60.24
2018-09-04T11:43:35.573Z,60.01
2018-09-04T11:44:35.581Z,60.88
2018-09-04T11:45:35.584Z,60.01
2018-09-04T11:46:35.953Z,59.07
2018-09-04T11:47:35.594Z,58.11
2018-09-04T11:48:35.594Z,58.39
2018-09-04T11:49:35.598Z,56.87
2018-09-04T11:50:35.601Z,57.26
2018-09-04T11:51:35.604Z,57.07
2018-09-04T11:52:35.613Z,56.87
2018-09-04T11:53:35.615Z,56.41
2018-09-04T11:54:35.626Z,55.74
2018-09-04T11:55:35.960Z,55.83
2018-09-04T11:56:35.623Z,54.31
2018-09-04T11:57:35.629Z,54.80
2018-09-04T11:58:35.638Z,54.82
2018-09-04T11:59:35.646Z,55.02
2018-09-04T12:00:35.640Z,56.09
2018-09-04T12:01:35.644Z,55.02
2018-09-04T12:02:35.648Z,54.66
2018-09-04T12:03:35.648Z,55.33
2018-09-04T12:04:35.652Z,56.76
2018-09-04T12:05:35.722Z,57.34
2018-09-04T12:06:35.674Z,57.12
2018-09-04T12:07:35.667Z,57.78
2018-09-04T12:08:35.671Z,58.16
2018-09-04T12:09:35.713Z,59.00
2018-09-04T12:10:35.679Z,59.69
2018-09-04T12:11:35.684Z,58.81
2018-09-04T12:12:35.930Z,59.30
2018-09-04T12:13:35.692Z,60.04
2018-09-04T12:14:35.698Z,59.84
2018-09-04T12:15:35.701Z,60.43
2018-09-04T12:16:35.705Z,60.24
2018-09-04T12:17:35.712Z,60.52
2018-09-04T12:18:35.715Z,60.33
2018-09-04T12:19:35.717Z,60.52
2018-09-04T12:20:35.722Z,60.62
2018-09-04T12:21:35.742Z,60.33
2018-09-04T12:22:35.735Z,60.24
2018-09-04T12:23:35.736Z,59.84
2018-09-04T12:24:35.765Z,60.04
2018-09-04T12:25:35.740Z,59.84
2018-09-04T12:26:35.747Z,59.17
2018-09-04T12:27:35.758Z,59.10
2018-09-04T12:28:35.752Z,58.81
2018-09-04T12:29:35.754Z,57.36
2018-09-04T12:30:36.059Z,57.94
2018-09-04T12:31:35.795Z,57.68
2018-09-04T12:32:35.905Z,56.51
2018-09-04T12:33:35.774Z,56.03
2018-09-04T12:34:35.775Z,55.83
2018-09-04T12:35:35.778Z,55.16
2018-09-04T12:36:35.900Z,55.16
2018-09-04T12:37:35.784Z,55.35
2018-09-04T12:38:35.790Z,56.03
2018-09-04T12:39:35.795Z,55.87
2018-09-04T12:40:35.800Z,56.05
2018-09-04T12:41:35.803Z,54.80
2018-09-04T12:42:35.809Z,55.31
2018-09-04T12:43:35.816Z,55.31
2018-09-04T12:44:35.820Z,55.99
2018-09-04T12:45:35.813Z,56.61
2018-09-04T12:46:35.917Z,57.68
2018-09-04T12:47:35.825Z,58.06
2018-09-04T12:48:35.980Z,58.16
2018-09-04T12:49:35.834Z,59.00
2018-09-04T12:50:35.838Z,58.84
2018-09-04T12:51:35.984Z,58.33
2018-09-04T12:52:35.847Z,58.42